Time;durP1;ratioP1;P1;durP2;ratioP2;P2;SDS_P1;SDS_P2;PMS_P1;PMS_P2;Temp;Humidity;BMP_temperature;BMP_pressure;BME280_temperature;BME280_humidity;BME280_pressure;Samples;Min_cycle;Max_cycle;Signal;HPM_P1;HPM_P2
2022/02/11 00:02:17;;;;;;;72.20;35.00;;;;;;;5.97;52.71;95858.22;4952669;29;20200;-66
2022/02/11 00:07:16;;;;;;;58.17;31.73;;;;;;;5.84;52.06;95837.44;4952210;29;20597;-65
2022/02/11 00:09:43;;;;;;;52.28;31.15;;;;;;;6.31;51.61;95851.94;4951707;29;20306;-64
2022/02/11 00:12:10;;;;;;;63.95;34.45;;;;;;;6.28;51.61;95855.75;4951904;29;20628;-67
2022/02/11 00:17:27;;;;;;;57.83;32.40;;;;;;;5.90;52.44;95857.44;4922599;29;20295;-64
2022/02/11 00:19:54;;;;;;;61.70;34.20;;;;;;;5.60;53.59;95861.44;4951935;29;20212;-65
2022/02/11 00:22:22;;;;;;;61.80;33.38;;;;;;;5.27;53.98;95855.44;4952032;29;20218;-66
2022/02/11 00:24:51;;;;;;;63.55;35.58;;;;;;;6.21;52.35;95864.56;4951361;29;20207;-64
2022/02/11 00:35:31;;;;;;;65.05;35.85;;;;;;;5.55;53.64;95853.44;4951248;29;20203;-65
2022/02/11 00:38:04;;;;;;;61.00;34.47;;;;;;;6.08;52.65;95855.00;4951526;29;20227;-62
2022/02/11 01:04:47;;;;;;;62.25;32.92;;;;;;;6.56;50.09;95838.03;4950763;29;20298;-63
2022/02/11 01:07:13;;;;;;;57.55;32.83;;;;;;;6.61;49.97;95830.38;4951114;29;20199;-62
2022/02/11 01:09:41;;;;;;;58.92;32.70;;;;;;;6.57;50.18;95833.63;4950811;29;20614;-63
2022/02/11 01:12:10;;;;;;;59.42;32.70;;;;;;;6.13;50.63;95816.94;4951488;29;20200;-64
2022/02/11 01:14:51;;;;;;;50.90;30.85;;;;;;;6.32;50.92;95815.28;4950535;29;20235;-66
2022/02/11 01:19:59;;;;;;;53.95;30.63;;;;;;;6.04;51.10;95827.78;4951133;29;20204;-63
2022/02/11 01:22:40;;;;;;;50.50;29.33;;;;;;;6.06;50.74;95825.78;4951716;29;20196;-68
2022/02/11 01:25:32;;;;;;;49.88;28.33;;;;;;;5.94;50.68;95824.81;4950855;29;20207;-64
2022/02/11 01:35:56;;;;;;;47.13;26.88;;;;;;;5.91;50.81;95818.22;4951083;29;20210;-65
2022/02/11 01:39:06;;;;;;;45.42;26.30;;;;;;;6.01;50.06;95813.41;4950615;29;20290;-64
2022/02/11 01:44:25;;;;;;;49.75;27.33;;;;;;;5.91;50.32;95812.22;4951046;28;20225;-64
2022/02/11 02:05:48;;;;;;;46.33;26.65;;;;;;;5.83;50.17;95795.03;4956804;29;20282;-65
2022/02/11 02:56:40;;;;;;;49.17;28.17;;;;;;;5.55;50.89;95824.84;4948517;28;20283;-64
2022/02/11 02:58:45;;;;;;;49.67;28.35;;;;;;;5.44;51.03;95809.88;4952813;29;20215;-66
2022/02/11 03:56:27;;;;;;;41.67;25.23;;;;;;;5.26;50.72;95833.03;4952781;29;20278;-64
2022/02/11 04:56:15;;;;;;;54.38;30.25;;;;;;;4.55;51.52;95830.13;4950759;28;20214;-67
2022/02/11 05:01:27;;;;;;;48.78;29.15;;;;;;;4.68;50.95;95824.97;4950066;28;20577;-67
2022/02/11 05:03:54;;;;;;;49.08;30.45;;;;;;;4.72;50.60;95815.81;4949762;28;20200;-66
2022/02/11 05:06:23;;;;;;;47.25;29.40;;;;;;;4.42;51.22;95793.75;4950584;28;20210;-65
2022/02/11 05:08:50;;;;;;;47.15;29.88;;;;;;;4.37;52.60;95822.09;4950181;29;20873;-66
2022/02/11 05:11:17;;;;;;;55.50;31.05;;;;;;;4.68;52.65;95817.19;4950798;29;20223;-67
2022/02/11 05:13:44;;;;;;;52.53;32.15;;;;;;;4.83;52.07;95828.22;4950372;29;20238;-67
2022/02/11 05:16:11;;;;;;;71.07;42.25;;;;;;;4.78;52.08;95833.19;4951235;29;20286;-64
2022/02/11 05:18:38;;;;;;;75.85;44.47;;;;;;;4.71;52.39;95815.97;4949489;28;20195;-68
2022/02/11 05:21:04;;;;;;;85.00;48.65;;;;;;;4.82;52.14;95830.97;4949872;29;20735;-67
2022/02/11 05:23:31;;;;;;;103.30;56.60;;;;;;;4.75;51.77;95822.38;4951031;29;20920;-67
2022/02/11 05:25:58;;;;;;;117.88;68.88;;;;;;;4.71;52.98;95819.38;4951060;28;20200;-66
2022/02/11 05:28:25;;;;;;;136.15;75.07;;;;;;;4.79;52.92;95832.19;4950278;29;20650;-68
2022/02/11 05:30:52;;;;;;;135.68;78.57;;;;;;;4.85;52.57;95823.59;4950383;29;20208;-65
2022/02/11 05:33:20;;;;;;;158.07;88.65;;;;;;;4.96;52.37;95828.22;4949275;29;20188;-67
2022/02/11 05:35:47;;;;;;;172.65;95.20;;;;;;;5.04;52.56;95841.03;4950541;29;20303;-66
2022/02/11 05:38:15;;;;;;;159.65;93.10;;;;;;;5.06;52.09;95830.44;4951125;29;20222;-69
2022/02/11 05:40:44;;;;;;;156.23;91.85;;;;;;;4.96;52.48;95841.19;4951191;29;20218;-65
2022/02/11 05:43:12;;;;;;;154.23;87.13;;;;;;;4.87;52.95;95844.19;4950736;29;20181;-66
2022/02/11 05:45:39;;;;;;;154.48;88.82;;;;;;;4.89;52.30;95834.41;4950971;29;20184;-64
2022/02/11 05:48:07;;;;;;;159.75;94.45;;;;;;;4.81;51.74;95856.19;4950921;29;20192;-67
2022/02/11 05:50:34;;;;;;;170.48;100.15;;;;;;;4.87;51.97;95839.00;4950181;29;20234;-69
2022/02/11 05:53:07;;;;;;;179.23;105.07;;;;;;;4.87;52.52;95850.19;4949453;29;20258;-68
2022/02/11 05:55:34;;;;;;;154.13;92.40;;;;;;;4.95;51.42;95837.00;4950876;29;20296;-63
2022/02/11 05:58:02;;;;;;;152.95;87.10;;;;;;;4.76;51.75;95863.72;4950683;29;20200;-66
2022/02/11 06:00:30;;;;;;;159.98;95.13;;;;;;;4.96;51.16;95861.97;4950148;29;20758;-63
2022/02/11 06:02:57;;;;;;;145.68;86.90;;;;;;;4.90;51.17;95867.16;4950614;29;20184;-65
2022/02/11 06:05:23;;;;;;;151.35;89.70;;;;;;;4.85;51.12;95862.56;4950086;29;20270;-66
2022/02/11 06:07:50;;;;;;;146.55;86.50;;;;;;;4.95;50.77;95851.78;4950630;29;20215;-65
2022/02/11 06:10:19;;;;;;;140.15;80.28;;;;;;;5.10;50.61;95861.03;4950512;29;20263;-67
2022/02/11 06:12:46;;;;;;;131.93;76.07;;;;;;;5.08;50.70;95863.00;4950390;29;20231;-67
2022/02/11 06:15:13;;;;;;;120.20;71.45;;;;;;;5.11;50.83;95873.00;4950477;29;20211;-70
2022/02/11 06:17:40;;;;;;;119.55;69.72;;;;;;;5.16;50.52;95870.59;4949692;29;20200;-69
2022/02/11 06:20:07;;;;;;;128.75;77.55;;;;;;;5.27;50.75;95860.63;4949448;29;20219;-69
2022/02/11 06:22:35;;;;;;;115.47;69.43;;;;;;;5.26;50.39;95859.03;4950510;29;20254;-66
2022/02/11 06:25:03;;;;;;;126.45;76.20;;;;;;;5.23;51.08;95869.81;4948961;29;20208;-67
2022/02/11 06:27:30;;;;;;;136.38;81.22;;;;;;;5.14;50.74;95846.66;4950755;29;20578;-65
2022/02/11 06:29:57;;;;;;;134.80;80.88;;;;;;;5.36;50.55;95865.44;4950426;28;20192;-66
2022/02/11 06:32:26;;;;;;;139.63;82.40;;;;;;;5.59;50.25;95881.44;4953830;29;20576;-68
2022/02/11 06:34:55;;;;;;;134.07;79.68;;;;;;;5.74;50.22;95868.22;4953498;29;20626;-64
2022/02/11 06:37:23;;;;;;;129.45;77.28;;;;;;;5.91;49.97;95869.44;4952368;29;20742;-66
2022/02/11 06:39:50;;;;;;;111.85;69.32;;;;;;;5.54;51.30;95867.44;4951311;29;20200;-67
2022/02/11 06:42:16;;;;;;;125.55;70.55;;;;;;;5.87;50.65;95873.44;4951244;29;20258;-63
2022/02/11 06:44:43;;;;;;;113.45;66.75;;;;;;;6.03;50.66;95871.22;4951362;29;20262;-67
2022/02/11 06:47:10;;;;;;;89.43;53.60;;;;;;;6.17;50.46;95866.78;4952475;29;20539;-64
2022/02/11 06:49:37;;;;;;;89.18;52.95;;;;;;;6.25;50.03;95870.97;4952107;29;20191;-65
2022/02/11 06:52:04;;;;;;;87.78;53.45;;;;;;;6.21;50.28;95864.56;4953746;29;20294;-67
2022/02/11 06:54:32;;;;;;;86.78;53.97;;;;;;;6.49;50.26;95872.91;4953155;29;20227;-63
2022/02/11 06:56:59;;;;;;;88.95;53.53;;;;;;;6.58;49.61;95867.25;4953933;29;20212;-64
2022/02/11 06:59:26;;;;;;;89.40;53.95;;;;;;;6.64;49.49;95866.41;4953364;29;20227;-66
2022/02/11 07:01:53;;;;;;;84.50;49.97;;;;;;;6.79;49.56;95861.75;4953398;29;20204;-63
2022/02/11 07:04:20;;;;;;;85.28;50.17;;;;;;;6.55;49.95;95862.44;4953266;29;20239;-64
2022/02/11 07:06:46;;;;;;;77.80;47.58;;;;;;;6.80;49.57;95858.16;4953347;29;20221;-67
2022/02/11 07:09:13;;;;;;;80.15;48.72;;;;;;;6.90;49.84;95863.69;4953375;29;20188;-65
2022/02/11 07:11:40;;;;;;;87.25;51.45;;;;;;;7.07;49.59;95859.59;4953275;29;20687;-64
2022/02/11 07:14:11;;;;;;;91.80;58.05;;;;;;;7.11;49.00;95855.56;4952738;29;20999;-66
2022/02/11 07:16:38;;;;;;;101.35;63.88;;;;;;;7.25;49.33;95852.84;4953368;29;20242;-64
2022/02/11 07:19:05;;;;;;;115.32;71.93;;;;;;;7.34;48.99;95859.41;4952819;29;20204;-64
2022/02/11 07:21:32;;;;;;;130.93;80.60;;;;;;;7.60;48.95;95860.00;4953094;29;20195;-64
2022/02/11 07:23:59;;;;;;;134.30;82.63;;;;;;;7.55;48.70;95856.44;4952449;29;20679;-66
2022/02/11 07:26:26;;;;;;;131.93;83.97;;;;;;;7.74;48.65;95855.47;4953709;29;20214;-63
2022/02/11 07:28:52;;;;;;;139.05;87.68;;;;;;;7.84;48.43;95847.97;4952740;29;20195;-67
2022/02/11 07:31:19;;;;;;;143.35;85.18;;;;;;;8.11;48.07;95849.31;4953306;29;20216;-63
2022/02/11 07:33:46;;;;;;;137.48;84.72;;;;;;;7.88;47.91;95849.13;4952831;29;20192;-65
2022/02/11 07:36:14;;;;;;;124.47;80.07;;;;;;;8.01;48.46;95849.78;4954933;29;20572;-65
2022/02/11 07:38:41;;;;;;;124.30;77.65;;;;;;;8.18;47.78;95844.81;4953286;29;20251;-65
2022/02/11 07:41:07;;;;;;;158.57;94.60;;;;;;;7.97;48.35;95819.13;4953781;28;20200;-66
2022/02/11 07:43:34;;;;;;;167.02;103.47;;;;;;;8.26;48.56;95841.94;4952626;29;20214;-66
2022/02/11 07:46:08;;;;;;;163.35;98.60;;;;;;;8.30;48.49;95830.06;4953390;29;20196;-66
2022/02/11 07:48:35;;;;;;;136.95;84.22;;;;;;;8.32;49.55;95840.28;4954023;29;20231;-65
2022/02/11 07:51:02;;;;;;;133.60;81.55;;;;;;;8.25;48.87;95840.34;4953399;29;20235;-66
2022/02/11 07:53:29;;;;;;;112.05;69.70;;;;;;;8.46;48.45;95837.31;4952135;29;21006;-66
2022/02/11 07:55:56;;;;;;;99.25;62.78;;;;;;;8.51;48.95;95834.81;4952931;29;20311;-65
2022/02/11 07:58:26;;;;;;;98.68;57.33;;;;;;;8.57;48.38;95833.97;4952062;29;20203;-65
2022/02/11 08:00:55;;;;;;;91.72;54.30;;;;;;;8.70;47.73;95836.41;4952256;29;20306;-65
2022/02/11 08:03:23;;;;;;;79.72;52.13;;;;;;;8.75;48.26;95840.97;4952336;29;20611;-65
2022/02/11 08:05:53;;;;;;;79.18;50.83;;;;;;;8.72;47.67;95831.72;4952575;29;20228;-65
2022/02/11 08:08:23;;;;;;;79.68;49.03;;;;;;;8.80;48.11;95823.59;4952371;29;20185;-67
2022/02/11 08:10:49;;;;;;;72.07;46.75;;;;;;;8.77;48.30;95824.06;4952784;29;20211;-66
2022/02/11 08:13:16;;;;;;;69.35;45.97;;;;;;;9.02;48.17;95829.94;4951565;29;20625;-66
2022/02/11 08:15:43;;;;;;;67.82;44.70;;;;;;;9.06;48.59;95833.69;4952293;29;20214;-66
2022/02/11 08:18:10;;;;;;;65.45;42.53;;;;;;;9.57;47.91;95829.69;4951924;29;20675;-67
2022/02/11 08:20:57;;;;;;;64.88;41.80;;;;;;;10.30;45.32;95823.00;4952878;29;20689;-64
2022/02/11 08:23:25;;;;;;;67.85;44.55;;;;;;;10.35;45.41;95823.09;4951896;29;20704;-66
2022/02/11 08:25:52;;;;;;;64.65;41.95;;;;;;;10.07;45.32;95825.63;4952756;29;20267;-66
2022/02/11 08:28:19;;;;;;;62.40;41.70;;;;;;;10.14;45.89;95821.09;4951752;29;20196;-68
2022/02/11 08:30:50;;;;;;;63.40;41.28;;;;;;;10.41;45.02;95816.94;4951959;29;20467;-63
2022/02/11 08:33:21;;;;;;;55.85;37.63;;;;;;;10.64;45.37;95816.88;4951866;29;20180;-66
2022/02/11 08:35:53;;;;;;;55.33;36.28;;;;;;;11.06;44.06;95814.75;4952559;29;20219;-64
2022/02/11 08:38:22;;;;;;;49.55;33.45;;;;;;;11.13;43.86;95813.59;4951800;29;20203;-63
2022/02/11 08:40:49;;;;;;;49.80;34.30;;;;;;;11.10;44.32;95806.19;4951634;29;20199;-65
2022/02/11 08:43:17;;;;;;;51.67;33.33;;;;;;;11.64;43.44;95804.69;4951618;29;20447;-66
2022/02/11 08:45:45;;;;;;;48.33;32.97;;;;;;;11.69;43.00;95804.03;4952059;29;20455;-64
2022/02/11 08:48:13;;;;;;;49.60;34.10;;;;;;;11.80;43.25;95796.06;4951855;29;20432;-64
2022/02/11 08:50:41;;;;;;;48.90;32.30;;;;;;;11.93;42.72;95792.31;4951403;29;20478;-64
2022/02/11 08:53:30;;;;;;;47.53;30.83;;;;;;;12.06;42.86;95786.72;4951087;28;21080;-65
2022/02/11 08:55:57;;;;;;;47.87;31.17;;;;;;;12.07;42.97;95780.41;4951618;29;20486;-68
2022/02/11 08:58:25;;;;;;;48.70;31.63;;;;;;;12.33;42.21;95779.72;4950975;29;20950;-64
2022/02/11 09:00:51;;;;;;;46.93;31.93;;;;;;;12.68;41.81;95776.69;4951213;29;20455;-66
2022/02/11 09:03:24;;;;;;;43.20;30.43;;;;;;;12.63;41.96;95769.53;4951029;29;20531;-65
2022/02/11 09:05:51;;;;;;;45.63;29.67;;;;;;;12.73;42.03;95769.66;4951486;29;20466;-65
2022/02/11 09:08:19;;;;;;;50.83;29.97;;;;;;;13.04;41.66;95774.22;4951281;29;20447;-64
2022/02/11 09:10:47;;;;;;;47.13;31.37;;;;;;;13.33;40.43;95768.66;4951109;29;20463;-65
2022/02/11 09:13:14;;;;;;;47.53;31.57;;;;;;;13.36;40.42;95765.53;4950989;29;20579;-66
2022/02/11 09:15:41;;;;;;;51.30;32.63;;;;;;;13.52;39.93;95769.88;4951631;29;20436;-68
2022/02/11 09:18:08;;;;;;;52.57;31.80;;;;;;;13.17;39.45;95765.88;4951559;29;20451;-67
2022/02/11 09:20:35;;;;;;;47.03;33.07;;;;;;;13.58;39.63;95763.59;4951623;29;20969;-65
2022/02/11 09:23:04;;;;;;;47.33;30.00;;;;;;;13.69;39.15;95758.16;4951334;29;20440;-69
2022/02/11 09:25:32;;;;;;;52.40;31.87;;;;;;;13.95;39.07;95762.53;4950684;29;20456;-66
2022/02/11 09:27:59;;;;;;;44.13;30.87;;;;;;;14.09;38.96;95757.59;4951556;29;20447;-67
2022/02/11 09:30:26;;;;;;;46.83;30.27;;;;;;;14.07;38.76;95754.41;4950647;29;20506;-66
2022/02/11 09:32:55;;;;;;;43.27;28.80;;;;;;;14.28;37.91;95750.88;4951054;29;20483;-66
2022/02/11 09:35:23;;;;;;;45.93;29.97;;;;;;;14.67;37.54;95749.41;4950775;29;20456;-67
2022/02/11 09:37:51;;;;;;;47.43;30.87;;;;;;;14.66;38.04;95749.69;4951243;29;20454;-66
2022/02/11 09:40:19;;;;;;;46.17;31.30;;;;;;;15.11;37.06;95740.00;4950590;29;20448;-65
2022/02/11 09:42:48;;;;;;;45.57;31.97;;;;;;;15.27;35.99;95738.94;4951531;29;20529;-65
2022/02/11 09:45:17;;;;;;;44.33;31.73;;;;;;;15.54;36.64;95737.94;4952956;29;20506;-63
2022/02/11 09:47:44;;;;;;;46.20;32.63;;;;;;;16.23;35.73;95717.69;4952900;29;20446;-62
2022/02/11 09:50:10;;;;;;;47.23;30.17;;;;;;;16.80;33.97;95725.91;4953349;29;20551;-66
2022/02/11 09:52:44;;;;;;;42.53;29.33;;;;;;;17.33;33.37;95716.28;4952385;29;20322;-68
2022/02/11 09:57:57;;;;;;;44.37;30.30;;;;;;;17.11;33.96;95716.72;4950899;29;20458;-66
2022/02/11 10:00:25;;;;;;;45.73;30.73;;;;;;;16.76;33.71;95711.66;4950645;29;20517;-63
2022/02/11 10:03:00;;;;;;;43.37;29.93;;;;;;;16.93;34.61;95706.75;4951317;29;20531;-67
2022/02/11 10:05:30;;;;;;;50.47;31.13;;;;;;;16.94;34.75;95705.72;4951755;28;20620;-66
2022/02/11 10:07:58;;;;;;;43.27;29.87;;;;;;;16.83;33.97;95704.19;4955333;29;20877;-68
2022/02/11 10:10:38;;;;;;;51.67;30.67;;;;;;;17.17;33.62;95697.06;4954617;29;20871;-67
2022/02/11 10:13:13;;;;;;;45.63;28.97;;;;;;;17.35;33.40;95686.88;4954776;29;20684;-68
2022/02/11 10:15:47;;;;;;;43.33;29.93;;;;;;;17.42;33.49;95674.06;4954250;29;20538;-66
2022/02/11 10:18:25;;;;;;;43.70;30.07;;;;;;;17.87;33.62;95682.41;4954140;29;20836;-66
2022/02/11 10:20:56;;;;;;;46.13;29.23;;;;;;;17.43;32.78;95680.94;4954452;29;20447;-68
2022/02/11 10:23:24;;;;;;;41.10;28.33;;;;;;;17.42;33.18;95676.72;4953636;29;20487;-63
2022/02/11 10:26:06;;;;;;;43.83;27.87;;;;;;;17.81;32.95;95677.44;4954318;29;20999;-66
2022/02/11 10:28:35;;;;;;;41.47;28.70;;;;;;;17.74;32.47;95671.66;4953976;29;20829;-68
2022/02/11 10:31:03;;;;;;;46.40;28.97;;;;;;;17.55;32.56;95671.59;4954207;29;20467;-65
2022/02/11 10:34:07;;;;;;;46.80;28.63;;;;;;;17.93;31.87;95653.97;4954182;29;20505;-67
2022/02/11 10:36:39;;;;;;;38.87;28.23;;;;;;;17.79;31.88;95658.38;4954004;29;20446;-67
2022/02/11 10:39:31;;;;;;;45.03;29.30;;;;;;;18.01;32.08;95645.41;4953370;29;20506;-67
2022/02/11 10:42:02;;;;;;;42.77;28.57;;;;;;;18.16;32.58;95639.91;4954372;29;20454;-64
2022/02/11 10:44:31;;;;;;;42.50;28.60;;;;;;;17.98;31.16;95636.13;4953697;29;20557;-65
2022/02/11 10:47:03;;;;;;;42.73;28.93;;;;;;;18.12;31.98;95630.91;4954468;29;20447;-66
2022/02/11 10:49:45;;;;;;;43.30;28.60;;;;;;;18.23;31.84;95601.34;4954358;29;20447;-66
2022/02/11 10:52:17;;;;;;;48.83;28.90;;;;;;;17.97;32.22;95623.16;4953728;29;20949;-67
2022/02/11 10:54:54;;;;;;;48.23;27.87;;;;;;;18.19;31.84;95612.81;4953274;29;20875;-64
2022/02/11 10:57:28;;;;;;;47.27;29.60;;;;;;;18.23;31.35;95616.44;4953694;29;20442;-66
2022/02/11 10:59:55;;;;;;;44.47;29.53;;;;;;;17.94;31.12;95610.47;4953328;29;20463;-67
2022/02/11 11:02:24;;;;;;;46.17;29.37;;;;;;;18.05;31.27;95606.63;4953420;29;20439;-65
2022/02/11 11:04:52;;;;;;;45.70;29.17;;;;;;;18.11;32.16;95597.53;4953307;29;20553;-69
2022/02/11 11:07:27;;;;;;;44.30;28.97;;;;;;;18.26;31.44;95599.97;4953672;29;20451;-70
2022/02/11 11:10:15;;;;;;;52.10;30.20;;;;;;;18.19;31.54;95597.66;4953202;29;20447;-67
2022/02/11 11:12:53;;;;;;;45.50;31.17;;;;;;;17.79;30.94;95597.41;4953545;29;20574;-66
2022/02/11 11:15:22;;;;;;;47.70;31.43;;;;;;;18.20;31.51;95593.97;4953671;29;20529;-68
2022/02/11 11:17:50;;;;;;;45.90;29.60;;;;;;;18.47;31.13;95589.88;4953218;28;20431;-66
2022/02/11 11:20:22;;;;;;;46.97;29.40;;;;;;;18.62;30.63;95585.16;4952919;29;20473;-66
2022/02/11 11:22:57;;;;;;;49.53;30.00;;;;;;;18.27;30.62;95580.31;4953457;29;20954;-64
2022/02/11 11:25:23;;;;;;;43.07;29.27;;;;;;;18.27;31.39;95580.31;4953175;29;20470;-66
2022/02/11 11:27:55;;;;;;;45.13;30.00;;;;;;;18.27;30.79;95574.22;4953117;29;20490;-67
2022/02/11 11:30:29;;;;;;;48.10;30.17;;;;;;;18.64;30.70;95567.09;4953600;29;20443;-66
2022/02/11 11:33:04;;;;;;;44.37;29.43;;;;;;;18.67;31.09;95558.53;4953434;29;20902;-65
2022/02/11 11:35:34;;;;;;;47.97;30.93;;;;;;;18.79;30.26;95548.25;4952360;29;20467;-66
2022/02/11 11:38:13;;;;;;;42.33;28.77;;;;;;;18.51;30.66;95551.09;4953190;29;20447;-65
2022/02/11 11:40:54;;;;;;;50.23;29.70;;;;;;;19.19;30.46;95544.13;4953496;29;20455;-67
2022/02/11 11:43:39;;;;;;;52.23;31.40;;;;;;;19.19;30.46;95539.59;4952645;29;20470;-66
2022/02/11 11:46:17;;;;;;;49.93;30.33;;;;;;;19.39;30.24;95529.69;4952913;29;20479;-69
2022/02/11 11:48:59;;;;;;;41.97;29.40;;;;;;;19.57;30.38;95528.81;4952693;29;20451;-64
2022/02/11 11:51:29;;;;;;;40.73;27.87;;;;;;;19.66;30.01;95513.72;4953173;29;20471;-65
2022/02/11 11:54:17;;;;;;;42.13;28.70;;;;;;;19.86;29.03;95505.34;4953040;29;20942;-62
2022/02/11 11:57:01;;;;;;;40.53;28.00;;;;;;;19.71;29.19;95497.66;4952660;29;20438;-67
2022/02/11 11:59:37;;;;;;;46.23;27.73;;;;;;;19.38;28.32;95486.38;4952745;29;20424;-68
2022/02/11 12:02:10;;;;;;;37.33;27.67;;;;;;;19.84;28.15;95491.53;4953202;29;20455;-67
2022/02/11 12:04:40;;;;;;;39.40;26.73;;;;;;;19.65;27.61;95493.56;4952464;29;20455;-66
2022/02/11 12:07:11;;;;;;;42.70;27.00;;;;;;;19.48;27.93;95474.75;4952804;29;20476;-68
2022/02/11 12:09:48;;;;;;;41.67;27.43;;;;;;;20.01;27.69;95486.41;4952558;29;20926;-67
2022/02/11 12:12:26;;;;;;;39.07;26.23;;;;;;;20.64;26.87;95479.06;4952821;29;20949;-66
2022/02/11 12:14:55;;;;;;;46.17;27.03;;;;;;;20.96;26.74;95475.34;4951973;29;20451;-66
2022/02/11 12:17:24;;;;;;;42.53;26.80;;;;;;;21.34;26.56;95475.69;4952600;29;20480;-68
2022/02/11 12:19:52;;;;;;;43.07;27.47;;;;;;;21.67;25.70;95464.34;4951973;29;20807;-65
2022/02/11 12:22:21;;;;;;;41.73;25.07;;;;;;;21.75;25.34;95460.13;4952281;29;20510;-69
2022/02/11 12:27:41;;;;;;;47.10;26.17;;;;;;;22.34;24.27;95462.06;4951707;28;20972;-65
2022/02/11 12:30:14;;;;;;;43.20;25.93;;;;;;;22.77;24.12;95449.44;4952016;29;20462;-66
2022/02/11 12:32:53;;;;;;;39.13;26.37;;;;;;;23.14;23.50;95450.56;4952234;29;20479;-64
2022/02/11 12:35:29;;;;;;;42.50;23.93;;;;;;;23.21;22.69;95442.84;4951611;29;20530;-67
2022/02/11 12:38:00;;;;;;;34.10;24.10;;;;;;;23.64;22.42;95434.63;4951725;29;20442;-68
2022/02/11 12:40:29;;;;;;;39.10;24.27;;;;;;;24.14;22.27;95435.41;4951516;29;20455;-65
2022/02/11 12:43:06;;;;;;;35.73;24.77;;;;;;;24.66;20.96;95425.78;4952079;29;20188;-67
2022/02/11 12:45:43;;;;;;;36.23;23.53;;;;;;;25.70;20.79;95432.31;4951655;29;20551;-65
2022/02/11 12:48:14;;;;;;;46.87;25.63;;;;;;;25.46;21.16;95428.84;4951680;29;20191;-68
2022/02/11 12:50:46;;;;;;;37.07;24.27;;;;;;;26.03;20.35;95421.38;4951863;29;20199;-66
2022/02/11 12:53:16;;;;;;;62.30;46.30;;;;;;;26.60;20.12;95418.41;4951845;29;20235;-68
2022/02/11 12:55:49;;;;;;;33.93;21.50;;;;;;;25.99;19.82;95420.50;4952009;29;20259;-68
2022/02/11 12:58:19;;;;;;;36.70;23.27;;;;;;;26.52;19.39;95417.41;4951194;29;20204;-66
2022/02/11 13:00:48;;;;;;;38.77;24.20;;;;;;;27.41;19.15;95405.13;4951844;29;20290;-67
2022/02/11 13:03:17;;;;;;;33.87;19.60;;;;;;;27.28;19.01;95400.94;4950907;29;20219;-65
2022/02/11 13:05:49;;;;;;;33.40;21.23;;;;;;;27.60;17.94;95401.72;4951603;29;20196;-65
2022/02/11 13:08:24;;;;;;;33.97;21.93;;;;;;;27.38;17.62;95413.13;4951245;29;20652;-62
2022/02/11 13:10:57;;;;;;;34.30;21.63;;;;;;;28.43;16.62;95393.09;4951565;29;20225;-65
2022/02/11 13:13:24;;;;;;;33.97;21.37;;;;;;;28.44;17.28;95398.13;4950880;29;20250;-66
2022/02/11 13:15:56;;;;;;;27.67;20.37;;;;;;;28.67;17.13;95401.69;4952295;29;20686;-67
2022/02/11 13:18:26;;;;;;;40.40;23.80;;;;;;;28.51;16.68;95397.47;4951224;29;20192;-65
2022/02/11 13:20:57;;;;;;;35.90;22.80;;;;;;;28.65;16.89;95393.16;4951903;29;20241;-70
2022/02/11 13:23:25;;;;;;;39.93;24.23;;;;;;;28.96;16.77;95394.84;4951087;29;20204;-69
2022/02/11 13:25:55;;;;;;;38.10;24.60;;;;;;;29.21;16.80;95392.59;4951327;29;20200;-66
2022/02/11 13:28:24;;;;;;;35.23;23.77;;;;;;;28.46;17.04;95374.28;4950500;29;20583;-64
2022/02/11 13:30:58;;;;;;;32.53;22.23;;;;;;;29.06;17.25;95393.47;4951222;29;20200;-65
2022/02/11 13:33:27;;;;;;;28.70;21.63;;;;;;;28.72;16.26;95387.88;4950510;29;20238;-67
2022/02/11 13:36:01;;;;;;;32.50;21.10;;;;;;;28.69;16.68;95382.44;4951393;29;20702;-65
2022/02/11 13:38:36;;;;;;;32.93;21.33;;;;;;;28.03;16.95;95387.28;4951199;29;20294;-63
2022/02/11 13:41:09;;;;;;;35.70;20.83;;;;;;;28.12;17.06;95388.63;4953974;28;20222;-67
2022/02/11 13:43:50;;;;;;;31.53;21.33;;;;;;;28.39;17.14;95395.72;4954890;29;20889;-64
2022/02/11 13:46:48;;;;;;;37.37;21.13;;;;;;;27.84;17.20;95390.72;4954944;29;20207;-68
2022/02/11 13:49:20;;;;;;;29.17;21.07;;;;;;;28.60;16.94;95390.75;4954676;29;20211;-67
2022/02/11 13:54:58;;;;;;;43.70;21.87;;;;;;;27.75;17.33;95392.81;4955190;29;20223;-67
2022/02/11 13:57:25;;;;;;;35.17;21.53;;;;;;;27.21;17.79;95391.94;4954438;29;20207;-67
2022/02/11 13:59:53;;;;;;;37.37;20.47;;;;;;;27.51;17.61;95384.97;4954541;29;20199;-64
2022/02/11 14:02:23;;;;;;;32.20;19.90;;;;;;;27.26;17.91;95375.53;4954863;29;20584;-63
2022/02/11 14:05:03;;;;;;;39.50;20.57;;;;;;;27.01;17.80;95381.09;4954097;29;20204;-69
2022/02/11 14:07:30;;;;;;;44.83;21.73;;;;;;;26.63;18.10;95382.75;4954448;29;20196;-66
2022/02/11 14:09:57;;;;;;;45.53;22.13;;;;;;;26.53;18.63;95386.72;4954044;29;20200;-65
2022/02/11 14:12:24;;;;;;;51.13;23.97;;;;;;;26.77;18.45;95381.25;4954793;29;20223;-67
2022/02/11 14:14:57;;;;;;;46.43;22.13;;;;;;;27.07;17.81;95381.59;4953988;29;20227;-64
2022/02/11 14:17:26;;;;;;;35.70;20.80;;;;;;;26.48;18.13;95381.59;4954541;29;20687;-68
2022/02/11 14:19:53;;;;;;;26.20;20.07;;;;;;;25.87;18.63;95380.25;4953736;29;20211;-63
2022/02/11 14:22:20;;;;;;;36.87;20.73;;;;;;;25.77;18.75;95386.06;4954658;29;20188;-64
2022/02/11 14:24:47;;;;;;;38.87;20.83;;;;;;;25.81;19.06;95392.34;4954253;29;20243;-65
2022/02/11 14:27:15;;;;;;;30.47;21.80;;;;;;;24.55;19.89;95384.44;4954845;29;20223;-66
2022/02/11 14:29:42;;;;;;;36.17;21.37;;;;;;;24.05;20.46;95387.28;4953936;29;20204;-64
2022/02/11 14:32:09;;;;;;;38.37;22.40;;;;;;;23.85;20.12;95376.53;4954469;29;20270;-67
2022/02/11 14:34:36;;;;;;;37.80;23.53;;;;;;;23.41;20.84;95388.66;4953838;29;20211;-67
2022/02/11 14:37:04;;;;;;;46.37;25.00;;;;;;;23.35;20.38;95378.47;4954488;29;20192;-66
2022/02/11 14:39:31;;;;;;;31.97;21.77;;;;;;;23.11;20.67;95385.19;4953609;29;20200;-68
2022/02/11 14:42:01;;;;;;;34.70;21.33;;;;;;;22.88;21.34;95386.53;4954051;29;20741;-68
2022/02/11 14:44:31;;;;;;;42.77;21.80;;;;;;;22.76;21.50;95388.31;4952998;29;20211;-66
2022/02/11 14:47:00;;;;;;;38.77;23.60;;;;;;;22.33;21.73;95391.06;4953854;29;20207;-65
2022/02/11 14:49:28;;;;;;;35.47;21.97;;;;;;;21.57;22.49;95367.84;4953430;29;20310;-66
2022/02/11 14:51:59;;;;;;;39.07;20.90;;;;;;;21.62;22.33;95394.34;4953944;28;20203;-64
2022/02/11 14:54:28;;;;;;;40.80;23.00;;;;;;;21.62;22.57;95389.03;4953856;29;20566;-67
2022/02/11 14:56:55;;;;;;;39.50;22.47;;;;;;;21.18;23.22;95388.13;4954352;29;20629;-65
2022/02/11 14:59:23;;;;;;;41.87;22.57;;;;;;;20.94;23.63;95389.59;4952706;29;20203;-70
2022/02/11 15:01:52;;;;;;;44.17;22.73;;;;;;;20.97;23.38;95395.09;4953603;29;20180;-66
2022/02/11 15:04:19;;;;;;;43.17;23.67;;;;;;;21.23;23.22;95383.75;4953002;29;20459;-66
2022/02/11 15:06:50;;;;;;;41.27;23.03;;;;;;;21.17;23.37;95379.69;4954029;29;20458;-64
2022/02/11 15:09:20;;;;;;;36.17;23.77;;;;;;;20.76;23.69;95386.09;4952918;29;20459;-69
2022/02/11 15:11:47;;;;;;;44.17;24.10;;;;;;;20.44;24.29;95393.56;4953668;29;20459;-68
2022/02/11 15:14:21;;;;;;;48.83;25.30;;;;;;;20.32;24.54;95391.50;4952663;29;20561;-64
2022/02/11 15:16:49;;;;;;;46.27;24.07;;;;;;;20.21;24.84;95390.16;4953745;29;20542;-66
2022/02/11 15:19:16;;;;;;;41.60;26.07;;;;;;;19.84;25.21;95395.81;4952905;29;20561;-65
2022/02/11 15:21:45;;;;;;;45.53;26.03;;;;;;;19.98;25.08;95388.56;4953508;29;20547;-66
2022/02/11 15:24:13;;;;;;;50.00;26.33;;;;;;;19.75;25.67;95392.28;4953631;29;20461;-63
2022/02/11 15:26:40;;;;;;;48.67;26.13;;;;;;;19.34;26.39;95392.41;4953762;29;20448;-65
2022/02/11 15:29:08;;;;;;;55.77;27.33;;;;;;;19.17;27.29;95392.19;4953178;29;20428;-67
2022/02/11 15:31:38;;;;;;;56.77;27.50;;;;;;;19.52;27.93;95398.66;4953177;29;20462;-70
2022/02/11 15:34:06;;;;;;;56.67;28.13;;;;;;;19.62;27.80;95398.44;4952218;29;20523;-65
2022/02/11 15:36:33;;;;;;;59.40;28.50;;;;;;;19.43;27.28;95403.09;4952968;29;20518;-67